F/V Renaissance II — FMEW — position and weather

sailwx.info

Track history (hours):
 
Tides and Currents Weather Stations Pressure Air Temp Water Temp Dewpoint Dewpoint Depression Visibility Wind Speed Wind Dir Waves Ship Positions

F/V Renaissance II

Last reported at 2017-Feb-26 12:09 UTC. Time now 2017-Feb-26 13:07 UTC.
Position N 46°34' W 002°28'.

Length 18 m.

Type: Fishing. MMSI: 228216600.

Date/timePositionNaut miles runAvg speedWind from/ knotsBaromVisibWave heightAir tempDewpointWater temp
2017-Feb-26 12:09N 46°34' W 002°28'7 1.4
2017-Feb-26 07:07N 46°37' W 002°18'6 9.8
2017-Feb-26 06:31N 46°35' W 002°10'9 9.7
2017-Feb-26 05:33N 46°31' W 001°58'7 6.8
2017-Feb-26 04:34N 46°30' W 001°48'  
2017-Feb-23 16:26N 46°30' W 001°48'7 7.8
2017-Feb-23 15:33N 46°29' W 001°57'8 8.5
2017-Feb-23 14:33N 46°29' W 002°10'4 3.4
2017-Feb-23 13:29N 46°32' W 002°13'21 1.7
2017-Feb-23 01:28N 46°26' W 002°42'3 3.4
2017-Feb-23 00:32N 46°29' W 002°44'6 2.9
2017-Feb-22 22:22N 46°35' W 002°44'5 2.2
2017-Feb-22 20:12N 46°34' W 002°37'2 3.5
2017-Feb-22 19:32N 46°32' W 002°39'3 3.4
2017-Feb-22 18:33N 46°29' W 002°41'3 3.1
2017-Feb-22 17:32N 46°26' W 002°39'2 2.3
2017-Feb-22 16:33N 46°24' W 002°40'3 3.4
2017-Feb-22 15:33N 46°27' W 002°42'10 4.9
2017-Feb-22 13:33N 46°23' W 002°55'6 5.7
2017-Feb-22 12:33N 46°20' W 003°02'3 3.1
2017-Feb-22 11:33N 46°21' W 003°07'5 2.6
2017-Feb-22 09:32N 46°22' W 002°60'5 2.4
2017-Feb-22 07:33N 46°19' W 002°55'13 3.2
2017-Feb-22 03:33N 46°09' W 002°43'7 0.9
2017-Feb-21 19:25N 46°03' W 002°37'22 5.2
2017-Feb-21 15:08N 46°16' W 002°11'610.1
2017-Feb-21 14:33N 46°21' W 002°06'5 5.4
2017-Feb-21 13:33N 46°24' W 001°59'4 3.5
2017-Feb-21 12:33N 46°24' W 001°54'7 7.4
2017-Feb-21 11:33N 46°30' W 001°47'1 0.7
2017-Feb-21 10:33N 46°29' W 001°47'9 9.1
2017-Feb-21 09:33N 46°25' W 001°59'32 1.0
2017-Feb-20 02:12N 46°12' W 002°41'21 7.8
2017-Feb-19 23:31N 46°21' W 002°14'9 9.8
2017-Feb-19 22:33N 46°24' W 002°01'10 9.7
2017-Feb-19 21:33N 46°28' W 001°48'2 2.0
2017-Feb-19 20:33N 46°30' W 001°47'0 0.0
2017-Feb-19 19:33N 46°30' W 001°47'0 0.0
2017-Feb-19 18:33N 46°30' W 001°47'2 1.9
2017-Feb-19 17:33N 46°28' W 001°48'1010.0
2017-Feb-19 16:33N 46°25' W 002°02'33 1.0
2017-Feb-18 08:03N 45°60' W 002°33'5 2.0
2017-Feb-18 05:29N 46°01' W 002°40'3 3.1
2017-Feb-18 04:33N 46°04' W 002°40'3 3.1
2017-Feb-18 03:32N 46°07' W 002°40'3 3.1
2017-Feb-18 02:32N 46°10' W 002°43'6 2.6
2017-Feb-18 00:17N 46°15' W 002°42'2 2.9
2017-Feb-17 23:33N 46°18' W 002°42'13 3.2
2017-Feb-17 19:28N 46°25' W 002°27'13 9.7
2017-Feb-17 18:09N 46°26' W 002°08'5 8.8
2017-Feb-17 17:33N 46°28' W 002°01'10 9.6
2017-Feb-17 16:33N 46°28' W 001°47'1 0.1
2017-Feb-17 06:33N 46°30' W 001°47'0 0.0
2017-Feb-17 05:33N 46°30' W 001°47'0 0.0
2017-Feb-17 04:33N 46°30' W 001°47'0 0.0
2017-Feb-17 03:33N 46°30' W 001°47'0 0.0
2017-Feb-17 02:33N 46°30' W 001°47'0 0.0
2017-Feb-17 01:34N 46°30' W 001°47'0 0.0
2017-Feb-17 00:34N 46°30' W 001°47'0 0.0
2017-Feb-16 23:33N 46°30' W 001°47'0 0.0
2017-Feb-16 22:33N 46°30' W 001°47'2 1.8
2017-Feb-16 21:33N 46°28' W 001°49'10 9.8
2017-Feb-16 20:34N 46°27' W 002°03'15 7.3
2017-Feb-16 18:28N 46°25' W 002°25'  
Track history (hours):
 
Tides and Currents Weather Stations Pressure Air Temp Water Temp Dewpoint Dewpoint Depression Visibility Wind Speed Wind Dir Waves Ship Positions

F/V Renaissance II

Last reported at 2017-Feb-26 12:09 UTC. Time now 2017-Feb-26 13:07 UTC.
Position N 46°34' W 002°28'.

Length 18 m.

Type: Fishing. MMSI: 228216600.

Date/timePositionNaut miles runAvg speedWind from/ knotsBaromVisibWave heightAir tempDewpointWater temp
2017-Feb-26 12:09N 46°34' W 002°28'7 1.4
2017-Feb-26 07:07N 46°37' W 002°18'6 9.8
2017-Feb-26 06:31N 46°35' W 002°10'9 9.7
2017-Feb-26 05:33N 46°31' W 001°58'7 6.8
2017-Feb-26 04:34N 46°30' W 001°48'  
2017-Feb-23 16:26N 46°30' W 001°48'7 7.8
2017-Feb-23 15:33N 46°29' W 001°57'8 8.5
2017-Feb-23 14:33N 46°29' W 002°10'4 3.4
2017-Feb-23 13:29N 46°32' W 002°13'21 1.7
2017-Feb-23 01:28N 46°26' W 002°42'3 3.4
2017-Feb-23 00:32N 46°29' W 002°44'6 2.9
2017-Feb-22 22:22N 46°35' W 002°44'5 2.2
2017-Feb-22 20:12N 46°34' W 002°37'2 3.5
2017-Feb-22 19:32N 46°32' W 002°39'3 3.4
2017-Feb-22 18:33N 46°29' W 002°41'3 3.1
2017-Feb-22 17:32N 46°26' W 002°39'2 2.3
2017-Feb-22 16:33N 46°24' W 002°40'3 3.4
2017-Feb-22 15:33N 46°27' W 002°42'10 4.9
2017-Feb-22 13:33N 46°23' W 002°55'6 5.7
2017-Feb-22 12:33N 46°20' W 003°02'3 3.1
2017-Feb-22 11:33N 46°21' W 003°07'5 2.6
2017-Feb-22 09:32N 46°22' W 002°60'5 2.4
2017-Feb-22 07:33N 46°19' W 002°55'13 3.2
2017-Feb-22 03:33N 46°09' W 002°43'7 0.9
2017-Feb-21 19:25N 46°03' W 002°37'22 5.2
2017-Feb-21 15:08N 46°16' W 002°11'610.1
2017-Feb-21 14:33N 46°21' W 002°06'5 5.4
2017-Feb-21 13:33N 46°24' W 001°59'4 3.5
2017-Feb-21 12:33N 46°24' W 001°54'7 7.4
2017-Feb-21 11:33N 46°30' W 001°47'1 0.7
2017-Feb-21 10:33N 46°29' W 001°47'9 9.1
2017-Feb-21 09:33N 46°25' W 001°59'32 1.0
2017-Feb-20 02:12N 46°12' W 002°41'21 7.8
2017-Feb-19 23:31N 46°21' W 002°14'9 9.8
2017-Feb-19 22:33N 46°24' W 002°01'10 9.7
2017-Feb-19 21:33N 46°28' W 001°48'2 2.0
2017-Feb-19 20:33N 46°30' W 001°47'0 0.0
2017-Feb-19 19:33N 46°30' W 001°47'0 0.0
2017-Feb-19 18:33N 46°30' W 001°47'2 1.9
2017-Feb-19 17:33N 46°28' W 001°48'1010.0
2017-Feb-19 16:33N 46°25' W 002°02'33 1.0
2017-Feb-18 08:03N 45°60' W 002°33'5 2.0
2017-Feb-18 05:29N 46°01' W 002°40'3 3.1
2017-Feb-18 04:33N 46°04' W 002°40'3 3.1
2017-Feb-18 03:32N 46°07' W 002°40'3 3.1
2017-Feb-18 02:32N 46°10' W 002°43'6 2.6
2017-Feb-18 00:17N 46°15' W 002°42'2 2.9
2017-Feb-17 23:33N 46°18' W 002°42'13 3.2
2017-Feb-17 19:28N 46°25' W 002°27'13 9.7
2017-Feb-17 18:09N 46°26' W 002°08'5 8.8
2017-Feb-17 17:33N 46°28' W 002°01'10 9.6
2017-Feb-17 16:33N 46°28' W 001°47'1 0.1
2017-Feb-17 06:33N 46°30' W 001°47'0 0.0
2017-Feb-17 05:33N 46°30' W 001°47'0 0.0
2017-Feb-17 04:33N 46°30' W 001°47'0 0.0
2017-Feb-17 03:33N 46°30' W 001°47'0 0.0
2017-Feb-17 02:33N 46°30' W 001°47'0 0.0
2017-Feb-17 01:34N 46°30' W 001°47'0 0.0
2017-Feb-17 00:34N 46°30' W 001°47'0 0.0
2017-Feb-16 23:33N 46°30' W 001°47'0 0.0
2017-Feb-16 22:33N 46°30' W 001°47'2 1.8
2017-Feb-16 21:33N 46°28' W 001°49'10 9.8
2017-Feb-16 20:34N 46°27' W 002°03'15 7.3
2017-Feb-16 18:28N 46°25' W 002°25'  

Dump ship's entire track history